sensor_id;sensor_type;location;lat;lon;timestamp;temperature;humidity
34766;DHT22;20984;43.508;1.504;2023-12-22T00:01:07;11.10;99.90
34766;DHT22;20984;43.508;1.504;2023-12-22T00:03:33;11.10;99.90
34766;DHT22;20984;43.508;1.504;2023-12-22T00:05:58;11.10;99.90
34766;DHT22;20984;43.508;1.504;2023-12-22T00:08:24;11.10;99.90
34766;DHT22;20984;43.508;1.504;2023-12-22T00:10:50;11.10;99.90
34766;DHT22;20984;43.508;1.504;2023-12-22T00:13:15;11.10;99.90
34766;DHT22;20984;43.508;1.504;2023-12-22T00:15:41;11.10;99.90
34766;DHT22;20984;43.508;1.504;2023-12-22T00:18:10;11.10;99.90
34766;DHT22;20984;43.508;1.504;2023-12-22T00:20:35;11.10;99.90
34766;DHT22;20984;43.508;1.504;2023-12-22T00:23:01;11.10;99.90
34766;DHT22;20984;43.508;1.504;2023-12-22T00:25:27;11.00;99.90
34766;DHT22;20984;43.508;1.504;2023-12-22T00:27:52;11.10;99.90
34766;DHT22;20984;43.508;1.504;2023-12-22T00:30:18;11.00;99.90
34766;DHT22;20984;43.508;1.504;2023-12-22T00:32:44;11.00;99.90
34766;DHT22;20984;43.508;1.504;2023-12-22T00:35:09;11.00;99.90
34766;DHT22;20984;43.508;1.504;2023-12-22T00:37:35;10.90;99.90
34766;DHT22;20984;43.508;1.504;2023-12-22T00:40:01;10.90;99.90
34766;DHT22;20984;43.508;1.504;2023-12-22T00:42:29;10.90;99.90
34766;DHT22;20984;43.508;1.504;2023-12-22T00:44:55;10.90;99.90
34766;DHT22;20984;43.508;1.504;2023-12-22T00:47:21;10.90;99.90
34766;DHT22;20984;43.508;1.504;2023-12-22T00:49:46;10.90;99.90
34766;DHT22;20984;43.508;1.504;2023-12-22T00:52:12;10.90;99.90
34766;DHT22;20984;43.508;1.504;2023-12-22T00:54:38;10.80;99.90
34766;DHT22;20984;43.508;1.504;2023-12-22T00:57:03;10.80;99.90
34766;DHT22;20984;43.508;1.504;2023-12-22T00:59:29;10.80;99.90
34766;DHT22;20984;43.508;1.504;2023-12-22T01:01:55;10.70;99.90
34766;DHT22;20984;43.508;1.504;2023-12-22T01:04:21;10.70;99.90
34766;DHT22;20984;43.508;1.504;2023-12-22T01:06:46;10.70;99.90
34766;DHT22;20984;43.508;1.504;2023-12-22T01:09:12;10.60;99.90
34766;DHT22;20984;43.508;1.504;2023-12-22T01:11:38;10.60;99.90
34766;DHT22;20984;43.508;1.504;2023-12-22T01:14:03;10.60;99.90
34766;DHT22;20984;43.508;1.504;2023-12-22T01:16:29;10.60;99.90
34766;DHT22;20984;43.508;1.504;2023-12-22T01:18:54;10.60;99.90
34766;DHT22;20984;43.508;1.504;2023-12-22T01:21:20;10.60;99.90
34766;DHT22;20984;43.508;1.504;2023-12-22T01:23:46;10.60;99.90
34766;DHT22;20984;43.508;1.504;2023-12-22T01:26:11;10.60;99.90
34766;DHT22;20984;43.508;1.504;2023-12-22T01:28:37;10.60;99.90
34766;DHT22;20984;43.508;1.504;2023-12-22T01:31:03;10.60;99.90
34766;DHT22;20984;43.508;1.504;2023-12-22T01:33:28;10.60;99.90
34766;DHT22;20984;43.508;1.504;2023-12-22T01:35:55;10.60;99.90
34766;DHT22;20984;43.508;1.504;2023-12-22T01:38:21;10.60;99.90
34766;DHT22;20984;43.508;1.504;2023-12-22T01:40:46;10.60;99.90
34766;DHT22;20984;43.508;1.504;2023-12-22T01:43:12;10.60;99.90
34766;DHT22;20984;43.508;1.504;2023-12-22T01:45:42;10.50;99.90
34766;DHT22;20984;43.508;1.504;2023-12-22T01:48:10;10.60;99.90
34766;DHT22;20984;43.508;1.504;2023-12-22T01:50:36;10.60;99.90
34766;DHT22;20984;43.508;1.504;2023-12-22T01:53:02;10.50;99.90
34766;DHT22;20984;43.508;1.504;2023-12-22T01:55:28;10.60;99.90
34766;DHT22;20984;43.508;1.504;2023-12-22T01:57:55;10.60;99.90
34766;DHT22;20984;43.508;1.504;2023-12-22T02:00:21;10.60;99.90
34766;DHT22;20984;43.508;1.504;2023-12-22T02:02:48;10.60;99.90
34766;DHT22;20984;43.508;1.504;2023-12-22T02:05:15;10.60;99.90
34766;DHT22;20984;43.508;1.504;2023-12-22T02:07:41;10.60;99.90
34766;DHT22;20984;43.508;1.504;2023-12-22T02:10:10;10.50;99.90
34766;DHT22;20984;43.508;1.504;2023-12-22T02:12:38;10.60;99.90
34766;DHT22;20984;43.508;1.504;2023-12-22T02:15:05;10.50;99.90
34766;DHT22;20984;43.508;1.504;2023-12-22T02:18:02;10.60;99.90
34766;DHT22;20984;43.508;1.504;2023-12-22T02:20:29;10.60;99.90
34766;DHT22;20984;43.508;1.504;2023-12-22T02:22:55;10.60;99.90
34766;DHT22;20984;43.508;1.504;2023-12-22T02:25:21;10.60;99.90
34766;DHT22;20984;43.508;1.504;2023-12-22T02:27:53;10.60;99.90
34766;DHT22;20984;43.508;1.504;2023-12-22T02:30:31;10.60;99.90
34766;DHT22;20984;43.508;1.504;2023-12-22T02:33:04;10.60;99.90
34766;DHT22;20984;43.508;1.504;2023-12-22T02:35:32;10.60;99.90
34766;DHT22;20984;43.508;1.504;2023-12-22T02:38:02;10.60;99.90
34766;DHT22;20984;43.508;1.504;2023-12-22T02:40:29;10.60;99.90
34766;DHT22;20984;43.508;1.504;2023-12-22T02:42:55;10.60;99.90
34766;DHT22;20984;43.508;1.504;2023-12-22T02:45:21;10.60;99.90
34766;DHT22;20984;43.508;1.504;2023-12-22T02:47:47;10.60;99.90
34766;DHT22;20984;43.508;1.504;2023-12-22T02:50:14;10.60;99.90
34766;DHT22;20984;43.508;1.504;2023-12-22T02:52:40;10.60;99.90
34766;DHT22;20984;43.508;1.504;2023-12-22T02:55:07;10.60;99.90
34766;DHT22;20984;43.508;1.504;2023-12-22T02:57:32;10.60;99.90
34766;DHT22;20984;43.508;1.504;2023-12-22T02:59:58;10.60;99.90
34766;DHT22;20984;43.508;1.504;2023-12-22T03:02:24;10.70;99.90
34766;DHT22;20984;43.508;1.504;2023-12-22T03:04:50;10.70;99.90
34766;DHT22;20984;43.508;1.504;2023-12-22T03:07:15;10.70;99.90
34766;DHT22;20984;43.508;1.504;2023-12-22T03:09:44;10.70;99.90
34766;DHT22;20984;43.508;1.504;2023-12-22T03:12:10;10.70;99.90
34766;DHT22;20984;43.508;1.504;2023-12-22T03:14:36;10.70;99.90
34766;DHT22;20984;43.508;1.504;2023-12-22T03:17:03;10.70;99.90
34766;DHT22;20984;43.508;1.504;2023-12-22T03:19:29;10.70;99.90
34766;DHT22;20984;43.508;1.504;2023-12-22T03:21:55;10.70;99.90
34766;DHT22;20984;43.508;1.504;2023-12-22T03:24:22;10.70;99.90
34766;DHT22;20984;43.508;1.504;2023-12-22T03:26:49;10.70;99.90
34766;DHT22;20984;43.508;1.504;2023-12-22T03:29:14;10.70;99.90
34766;DHT22;20984;43.508;1.504;2023-12-22T03:31:40;10.80;99.90
34766;DHT22;20984;43.508;1.504;2023-12-22T03:34:06;10.80;99.90
34766;DHT22;20984;43.508;1.504;2023-12-22T03:36:32;10.80;99.90
34766;DHT22;20984;43.508;1.504;2023-12-22T03:38:58;10.80;99.90
34766;DHT22;20984;43.508;1.504;2023-12-22T03:41:24;10.80;99.90
34766;DHT22;20984;43.508;1.504;2023-12-22T03:43:49;10.80;99.90
34766;DHT22;20984;43.508;1.504;2023-12-22T03:46:15;10.80;99.90
34766;DHT22;20984;43.508;1.504;2023-12-22T03:48:40;10.80;99.90
34766;DHT22;20984;43.508;1.504;2023-12-22T03:51:06;10.80;99.90
34766;DHT22;20984;43.508;1.504;2023-12-22T03:53:32;10.80;99.90
34766;DHT22;20984;43.508;1.504;2023-12-22T03:55:57;10.70;99.90
34766;DHT22;20984;43.508;1.504;2023-12-22T03:58:23;10.80;99.90
34766;DHT22;20984;43.508;1.504;2023-12-22T04:00:50;10.80;99.90
34766;DHT22;20984;43.508;1.504;2023-12-22T04:03:15;10.70;99.90
34766;DHT22;20984;43.508;1.504;2023-12-22T04:05:41;10.80;99.90
34766;DHT22;20984;43.508;1.504;2023-12-22T04:08:07;10.70;99.90
34766;DHT22;20984;43.508;1.504;2023-12-22T04:10:32;10.70;99.90
34766;DHT22;20984;43.508;1.504;2023-12-22T04:12:58;10.70;99.90
34766;DHT22;20984;43.508;1.504;2023-12-22T04:15:23;10.80;99.90
34766;DHT22;20984;43.508;1.504;2023-12-22T04:17:49;10.80;99.90
34766;DHT22;20984;43.508;1.504;2023-12-22T04:20:15;10.70;99.90
34766;DHT22;20984;43.508;1.504;2023-12-22T04:22:41;10.80;99.90
34766;DHT22;20984;43.508;1.504;2023-12-22T04:25:07;10.80;99.90
34766;DHT22;20984;43.508;1.504;2023-12-22T04:27:34;10.80;99.90
34766;DHT22;20984;43.508;1.504;2023-12-22T04:30:00;10.80;99.90
34766;DHT22;20984;43.508;1.504;2023-12-22T04:32:25;10.80;99.90
34766;DHT22;20984;43.508;1.504;2023-12-22T04:34:51;10.80;99.90
34766;DHT22;20984;43.508;1.504;2023-12-22T04:37:17;10.80;99.90
34766;DHT22;20984;43.508;1.504;2023-12-22T04:39:42;10.80;99.90
34766;DHT22;20984;43.508;1.504;2023-12-22T04:42:08;10.70;99.90
34766;DHT22;20984;43.508;1.504;2023-12-22T04:44:34;10.70;99.90
34766;DHT22;20984;43.508;1.504;2023-12-22T04:47:00;10.70;99.90
34766;DHT22;20984;43.508;1.504;2023-12-22T04:49:25;10.70;99.90
34766;DHT22;20984;43.508;1.504;2023-12-22T04:51:51;10.60;99.90
34766;DHT22;20984;43.508;1.504;2023-12-22T04:54:16;10.60;99.90
34766;DHT22;20984;43.508;1.504;2023-12-22T04:56:42;10.60;99.90
34766;DHT22;20984;43.508;1.504;2023-12-22T04:59:08;10.50;99.90
34766;DHT22;20984;43.508;1.504;2023-12-22T05:01:34;10.50;99.90
34766;DHT22;20984;43.508;1.504;2023-12-22T05:04:00;10.50;99.90
34766;DHT22;20984;43.508;1.504;2023-12-22T05:06:27;10.50;99.90
34766;DHT22;20984;43.508;1.504;2023-12-22T05:08:54;10.50;99.90
34766;DHT22;20984;43.508;1.504;2023-12-22T05:11:21;10.50;99.90
34766;DHT22;20984;43.508;1.504;2023-12-22T05:13:46;10.50;99.90
34766;DHT22;20984;43.508;1.504;2023-12-22T05:16:12;10.40;99.90
34766;DHT22;20984;43.508;1.504;2023-12-22T05:18:38;10.40;99.90
34766;DHT22;20984;43.508;1.504;2023-12-22T05:21:04;10.40;99.90
34766;DHT22;20984;43.508;1.504;2023-12-22T05:23:29;10.40;99.90
34766;DHT22;20984;43.508;1.504;2023-12-22T05:25:55;10.40;99.90
34766;DHT22;20984;43.508;1.504;2023-12-22T05:28:21;10.40;99.90
34766;DHT22;20984;43.508;1.504;2023-12-22T05:30:46;10.40;99.90
34766;DHT22;20984;43.508;1.504;2023-12-22T05:33:12;10.40;99.90
34766;DHT22;20984;43.508;1.504;2023-12-22T05:35:38;10.50;99.90
34766;DHT22;20984;43.508;1.504;2023-12-22T05:38:04;10.50;99.90
34766;DHT22;20984;43.508;1.504;2023-12-22T05:40:32;10.50;99.90
34766;DHT22;20984;43.508;1.504;2023-12-22T05:42:58;10.50;99.90
34766;DHT22;20984;43.508;1.504;2023-12-22T05:45:24;10.50;99.90
34766;DHT22;20984;43.508;1.504;2023-12-22T05:47:52;10.50;99.90
34766;DHT22;20984;43.508;1.504;2023-12-22T05:50:18;10.60;99.90
34766;DHT22;20984;43.508;1.504;2023-12-22T05:52:43;10.60;99.90
34766;DHT22;20984;43.508;1.504;2023-12-22T05:55:10;10.50;99.90
34766;DHT22;20984;43.508;1.504;2023-12-22T05:57:36;10.60;99.90
34766;DHT22;20984;43.508;1.504;2023-12-22T06:00:05;10.60;99.90
34766;DHT22;20984;43.508;1.504;2023-12-22T06:02:33;10.60;99.90
34766;DHT22;20984;43.508;1.504;2023-12-22T06:04:59;10.50;99.90
34766;DHT22;20984;43.508;1.504;2023-12-22T06:07:25;10.50;99.90
34766;DHT22;20984;43.508;1.504;2023-12-22T06:09:51;10.60;99.90
34766;DHT22;20984;43.508;1.504;2023-12-22T06:12:17;10.60;99.90
34766;DHT22;20984;43.508;1.504;2023-12-22T06:14:42;10.50;99.90
34766;DHT22;20984;43.508;1.504;2023-12-22T06:17:08;10.60;99.90
34766;DHT22;20984;43.508;1.504;2023-12-22T06:19:35;10.60;99.90
34766;DHT22;20984;43.508;1.504;2023-12-22T06:22:01;10.60;99.90
34766;DHT22;20984;43.508;1.504;2023-12-22T06:24:27;10.60;99.90
34766;DHT22;20984;43.508;1.504;2023-12-22T06:26:53;10.60;99.90
34766;DHT22;20984;43.508;1.504;2023-12-22T06:29:19;10.60;99.90
34766;DHT22;20984;43.508;1.504;2023-12-22T06:31:44;10.60;99.90
34766;DHT22;20984;43.508;1.504;2023-12-22T06:34:10;10.70;99.90
34766;DHT22;20984;43.508;1.504;2023-12-22T06:36:36;10.70;99.90
34766;DHT22;20984;43.508;1.504;2023-12-22T06:39:01;10.70;99.90
34766;DHT22;20984;43.508;1.504;2023-12-22T06:41:30;10.70;99.90
34766;DHT22;20984;43.508;1.504;2023-12-22T06:43:57;10.70;99.90
34766;DHT22;20984;43.508;1.504;2023-12-22T06:46:25;10.70;99.90
34766;DHT22;20984;43.508;1.504;2023-12-22T06:49:00;10.70;99.90
34766;DHT22;20984;43.508;1.504;2023-12-22T06:51:30;10.70;99.90
34766;DHT22;20984;43.508;1.504;2023-12-22T06:53:56;10.70;99.90
34766;DHT22;20984;43.508;1.504;2023-12-22T06:56:24;10.70;99.90
34766;DHT22;20984;43.508;1.504;2023-12-22T06:58:51;10.70;99.90
34766;DHT22;20984;43.508;1.504;2023-12-22T07:03:49;10.70;99.90
34766;DHT22;20984;43.508;1.504;2023-12-22T07:06:16;10.70;99.90
34766;DHT22;20984;43.508;1.504;2023-12-22T07:08:43;10.70;99.90
34766;DHT22;20984;43.508;1.504;2023-12-22T07:11:09;10.70;99.90
34766;DHT22;20984;43.508;1.504;2023-12-22T07:13:35;10.80;99.90
34766;DHT22;20984;43.508;1.504;2023-12-22T07:16:01;10.70;99.90
34766;DHT22;20984;43.508;1.504;2023-12-22T07:18:28;10.80;99.90
34766;DHT22;20984;43.508;1.504;2023-12-22T07:20:56;10.70;99.90
34766;DHT22;20984;43.508;1.504;2023-12-22T07:23:23;10.70;99.90
34766;DHT22;20984;43.508;1.504;2023-12-22T07:25:48;10.80;99.90
34766;DHT22;20984;43.508;1.504;2023-12-22T07:28:14;10.70;99.90
34766;DHT22;20984;43.508;1.504;2023-12-22T07:30:41;10.80;99.90
34766;DHT22;20984;43.508;1.504;2023-12-22T07:33:06;10.80;99.90
34766;DHT22;20984;43.508;1.504;2023-12-22T07:35:32;10.80;99.90
34766;DHT22;20984;43.508;1.504;2023-12-22T07:37:58;10.80;99.90
34766;DHT22;20984;43.508;1.504;2023-12-22T07:40:23;10.80;99.90
34766;DHT22;20984;43.508;1.504;2023-12-22T07:42:49;10.80;99.90
34766;DHT22;20984;43.508;1.504;2023-12-22T07:45:16;10.80;99.90
34766;DHT22;20984;43.508;1.504;2023-12-22T07:47:41;10.80;99.90
34766;DHT22;20984;43.508;1.504;2023-12-22T07:50:07;10.90;99.90
34766;DHT22;20984;43.508;1.504;2023-12-22T07:52:35;10.90;99.90
34766;DHT22;20984;43.508;1.504;2023-12-22T07:55:06;10.90;99.90
34766;DHT22;20984;43.508;1.504;2023-12-22T07:57:32;11.00;99.90
34766;DHT22;20984;43.508;1.504;2023-12-22T07:59:58;10.90;99.90
34766;DHT22;20984;43.508;1.504;2023-12-22T08:02:23;11.00;99.90
34766;DHT22;20984;43.508;1.504;2023-12-22T08:04:49;11.00;99.90
34766;DHT22;20984;43.508;1.504;2023-12-22T08:07:16;11.00;99.90
34766;DHT22;20984;43.508;1.504;2023-12-22T08:09:41;11.00;99.90
34766;DHT22;20984;43.508;1.504;2023-12-22T08:12:07;11.00;99.90
34766;DHT22;20984;43.508;1.504;2023-12-22T08:14:33;11.00;99.90
34766;DHT22;20984;43.508;1.504;2023-12-22T08:16:59;11.10;99.90
34766;DHT22;20984;43.508;1.504;2023-12-22T08:19:24;11.00;99.90
34766;DHT22;20984;43.508;1.504;2023-12-22T08:21:53;11.10;99.90
34766;DHT22;20984;43.508;1.504;2023-12-22T08:24:20;11.10;99.90
34766;DHT22;20984;43.508;1.504;2023-12-22T08:26:47;11.10;99.90
34766;DHT22;20984;43.508;1.504;2023-12-22T08:29:12;11.10;99.90
34766;DHT22;20984;43.508;1.504;2023-12-22T08:31:38;11.10;99.90
34766;DHT22;20984;43.508;1.504;2023-12-22T08:34:04;11.10;99.90
34766;DHT22;20984;43.508;1.504;2023-12-22T08:36:31;11.10;99.90
34766;DHT22;20984;43.508;1.504;2023-12-22T08:38:57;11.10;99.90
34766;DHT22;20984;43.508;1.504;2023-12-22T08:41:22;11.10;99.90
34766;DHT22;20984;43.508;1.504;2023-12-22T08:43:48;11.10;99.90
34766;DHT22;20984;43.508;1.504;2023-12-22T08:46:14;11.10;99.90
34766;DHT22;20984;43.508;1.504;2023-12-22T08:48:40;11.20;99.90
34766;DHT22;20984;43.508;1.504;2023-12-22T08:51:06;11.20;99.90
34766;DHT22;20984;43.508;1.504;2023-12-22T08:53:33;11.20;99.90
34766;DHT22;20984;43.508;1.504;2023-12-22T08:56:01;11.20;99.90
34766;DHT22;20984;43.508;1.504;2023-12-22T08:58:27;11.20;99.90
34766;DHT22;20984;43.508;1.504;2023-12-22T09:00:53;11.20;99.90
34766;DHT22;20984;43.508;1.504;2023-12-22T09:03:19;11.20;99.90
34766;DHT22;20984;43.508;1.504;2023-12-22T09:05:44;11.30;99.90
34766;DHT22;20984;43.508;1.504;2023-12-22T09:08:10;11.30;99.90
34766;DHT22;20984;43.508;1.504;2023-12-22T09:10:36;11.30;99.90
34766;DHT22;20984;43.508;1.504;2023-12-22T09:13:01;11.30;99.90
34766;DHT22;20984;43.508;1.504;2023-12-22T09:15:27;11.40;99.90
34766;DHT22;20984;43.508;1.504;2023-12-22T09:17:53;11.40;99.90
34766;DHT22;20984;43.508;1.504;2023-12-22T09:20:22;11.40;99.90
34766;DHT22;20984;43.508;1.504;2023-12-22T09:22:48;11.40;99.90
34766;DHT22;20984;43.508;1.504;2023-12-22T09:25:13;11.40;99.90
34766;DHT22;20984;43.508;1.504;2023-12-22T09:27:39;11.50;99.90
34766;DHT22;20984;43.508;1.504;2023-12-22T09:30:05;11.50;99.90
34766;DHT22;20984;43.508;1.504;2023-12-22T09:32:34;11.40;99.90
34766;DHT22;20984;43.508;1.504;2023-12-22T09:35:00;11.50;99.90
34766;DHT22;20984;43.508;1.504;2023-12-22T09:37:26;11.50;99.90
34766;DHT22;20984;43.508;1.504;2023-12-22T09:39:52;11.50;99.90
34766;DHT22;20984;43.508;1.504;2023-12-22T09:42:20;11.60;99.90
34766;DHT22;20984;43.508;1.504;2023-12-22T09:44:49;11.70;99.90
34766;DHT22;20984;43.508;1.504;2023-12-22T09:47:16;11.70;99.90
34766;DHT22;20984;43.508;1.504;2023-12-22T09:49:43;11.70;99.90
34766;DHT22;20984;43.508;1.504;2023-12-22T09:52:10;11.70;99.90
34766;DHT22;20984;43.508;1.504;2023-12-22T09:54:37;11.70;99.90
34766;DHT22;20984;43.508;1.504;2023-12-22T09:57:03;11.60;99.90
34766;DHT22;20984;43.508;1.504;2023-12-22T09:59:30;11.70;99.90
34766;DHT22;20984;43.508;1.504;2023-12-22T10:01:57;11.70;99.90
34766;DHT22;20984;43.508;1.504;2023-12-22T10:04:25;11.70;99.90
34766;DHT22;20984;43.508;1.504;2023-12-22T10:06:51;11.80;99.90
34766;DHT22;20984;43.508;1.504;2023-12-22T10:09:19;11.80;99.90
34766;DHT22;20984;43.508;1.504;2023-12-22T10:11:47;11.70;99.90
34766;DHT22;20984;43.508;1.504;2023-12-22T10:14:15;11.80;99.90
34766;DHT22;20984;43.508;1.504;2023-12-22T10:16:48;11.80;99.90
34766;DHT22;20984;43.508;1.504;2023-12-22T10:19:14;11.70;99.90
34766;DHT22;20984;43.508;1.504;2023-12-22T10:21:40;11.70;99.90
34766;DHT22;20984;43.508;1.504;2023-12-22T10:24:05;11.70;99.90
34766;DHT22;20984;43.508;1.504;2023-12-22T10:26:31;11.60;99.90
34766;DHT22;20984;43.508;1.504;2023-12-22T10:28:57;11.60;99.90
34766;DHT22;20984;43.508;1.504;2023-12-22T10:31:22;11.60;99.90
34766;DHT22;20984;43.508;1.504;2023-12-22T10:33:48;11.50;99.90
34766;DHT22;20984;43.508;1.504;2023-12-22T10:36:13;11.50;99.90
34766;DHT22;20984;43.508;1.504;2023-12-22T10:38:40;11.50;99.90
34766;DHT22;20984;43.508;1.504;2023-12-22T10:41:06;11.60;99.90
34766;DHT22;20984;43.508;1.504;2023-12-22T10:43:40;11.60;99.90
34766;DHT22;20984;43.508;1.504;2023-12-22T10:46:07;11.70;99.90
34766;DHT22;20984;43.508;1.504;2023-12-22T10:48:36;11.70;99.90
34766;DHT22;20984;43.508;1.504;2023-12-22T10:51:02;11.70;99.90
34766;DHT22;20984;43.508;1.504;2023-12-22T10:53:28;11.70;99.90
34766;DHT22;20984;43.508;1.504;2023-12-22T10:55:54;11.70;99.90
34766;DHT22;20984;43.508;1.504;2023-12-22T10:58:20;11.70;99.90
34766;DHT22;20984;43.508;1.504;2023-12-22T11:00:47;11.70;99.90
34766;DHT22;20984;43.508;1.504;2023-12-22T11:03:17;11.70;99.90
34766;DHT22;20984;43.508;1.504;2023-12-22T11:05:46;11.70;99.90
34766;DHT22;20984;43.508;1.504;2023-12-22T11:08:14;11.70;99.90
34766;DHT22;20984;43.508;1.504;2023-12-22T11:10:42;11.70;99.90
34766;DHT22;20984;43.508;1.504;2023-12-22T11:13:12;11.70;99.90
34766;DHT22;20984;43.508;1.504;2023-12-22T11:15:40;11.70;99.90
34766;DHT22;20984;43.508;1.504;2023-12-22T11:18:07;11.60;99.90
34766;DHT22;20984;43.508;1.504;2023-12-22T11:20:35;11.60;99.90
34766;DHT22;20984;43.508;1.504;2023-12-22T11:23:02;11.60;99.90
34766;DHT22;20984;43.508;1.504;2023-12-22T11:25:30;11.60;99.90
34766;DHT22;20984;43.508;1.504;2023-12-22T11:27:59;11.60;99.90
34766;DHT22;20984;43.508;1.504;2023-12-22T11:30:27;11.60;99.90
34766;DHT22;20984;43.508;1.504;2023-12-22T11:32:54;11.60;99.90
34766;DHT22;20984;43.508;1.504;2023-12-22T11:35:23;11.70;99.90
34766;DHT22;20984;43.508;1.504;2023-12-22T11:37:49;11.70;99.90
34766;DHT22;20984;43.508;1.504;2023-12-22T11:40:15;11.70;99.90
34766;DHT22;20984;43.508;1.504;2023-12-22T11:42:45;11.70;99.90
34766;DHT22;20984;43.508;1.504;2023-12-22T11:45:12;11.70;99.90
34766;DHT22;20984;43.508;1.504;2023-12-22T11:47:41;11.70;99.90
34766;DHT22;20984;43.508;1.504;2023-12-22T11:50:10;11.70;99.90
34766;DHT22;20984;43.508;1.504;2023-12-22T11:52:36;11.80;99.90
34766;DHT22;20984;43.508;1.504;2023-12-22T11:55:01;11.80;99.90
34766;DHT22;20984;43.508;1.504;2023-12-22T12:00:00;11.80;99.90
34766;DHT22;20984;43.508;1.504;2023-12-22T12:02:26;11.80;99.90
34766;DHT22;20984;43.508;1.504;2023-12-22T12:04:53;11.90;99.90
34766;DHT22;20984;43.508;1.504;2023-12-22T12:07:45;11.90;99.90
34766;DHT22;20984;43.508;1.504;2023-12-22T12:13:08;11.80;99.90
34766;DHT22;20984;43.508;1.504;2023-12-22T12:15:35;11.80;99.90
34766;DHT22;20984;43.508;1.504;2023-12-22T12:18:02;11.80;99.90
34766;DHT22;20984;43.508;1.504;2023-12-22T12:20:28;11.80;99.90
34766;DHT22;20984;43.508;1.504;2023-12-22T12:22:54;11.90;99.90
34766;DHT22;20984;43.508;1.504;2023-12-22T12:25:24;11.90;99.90
34766;DHT22;20984;43.508;1.504;2023-12-22T12:30:28;11.80;99.90
34766;DHT22;20984;43.508;1.504;2023-12-22T12:32:54;11.80;99.90
34766;DHT22;20984;43.508;1.504;2023-12-22T12:35:20;11.80;99.90
34766;DHT22;20984;43.508;1.504;2023-12-22T12:37:49;11.70;99.90
34766;DHT22;20984;43.508;1.504;2023-12-22T12:40:18;11.80;99.90
34766;DHT22;20984;43.508;1.504;2023-12-22T12:42:46;11.70;99.90
34766;DHT22;20984;43.508;1.504;2023-12-22T12:45:12;11.70;99.90
34766;DHT22;20984;43.508;1.504;2023-12-22T12:47:38;11.80;99.90
34766;DHT22;20984;43.508;1.504;2023-12-22T12:50:03;11.70;99.90
34766;DHT22;20984;43.508;1.504;2023-12-22T12:52:29;11.70;99.90
34766;DHT22;20984;43.508;1.504;2023-12-22T12:54:55;11.70;99.90
34766;DHT22;20984;43.508;1.504;2023-12-22T12:57:24;11.70;99.90
34766;DHT22;20984;43.508;1.504;2023-12-22T12:59:50;11.60;99.90
34766;DHT22;20984;43.508;1.504;2023-12-22T13:02:19;11.60;99.90
34766;DHT22;20984;43.508;1.504;2023-12-22T13:04:47;11.60;99.90
34766;DHT22;20984;43.508;1.504;2023-12-22T13:07:12;11.60;99.90
34766;DHT22;20984;43.508;1.504;2023-12-22T13:09:38;11.60;99.90
34766;DHT22;20984;43.508;1.504;2023-12-22T13:12:05;11.70;99.90
34766;DHT22;20984;43.508;1.504;2023-12-22T13:14:30;11.70;99.90
34766;DHT22;20984;43.508;1.504;2023-12-22T13:16:57;11.80;99.90
34766;DHT22;20984;43.508;1.504;2023-12-22T13:19:24;11.80;99.90
34766;DHT22;20984;43.508;1.504;2023-12-22T13:21:56;11.90;99.90
34766;DHT22;20984;43.508;1.504;2023-12-22T13:24:22;11.90;99.90
34766;DHT22;20984;43.508;1.504;2023-12-22T13:27:02;11.90;99.90
34766;DHT22;20984;43.508;1.504;2023-12-22T13:29:29;12.00;99.90
34766;DHT22;20984;43.508;1.504;2023-12-22T13:31:55;12.00;99.90
34766;DHT22;20984;43.508;1.504;2023-12-22T13:34:22;12.00;99.90
34766;DHT22;20984;43.508;1.504;2023-12-22T13:36:48;11.90;99.90
34766;DHT22;20984;43.508;1.504;2023-12-22T13:39:14;11.90;99.90
34766;DHT22;20984;43.508;1.504;2023-12-22T13:41:41;11.90;99.90
34766;DHT22;20984;43.508;1.504;2023-12-22T13:44:13;11.90;99.90
34766;DHT22;20984;43.508;1.504;2023-12-22T13:46:40;11.90;99.90
34766;DHT22;20984;43.508;1.504;2023-12-22T13:49:08;11.90;99.90
34766;DHT22;20984;43.508;1.504;2023-12-22T13:51:39;11.80;99.90
34766;DHT22;20984;43.508;1.504;2023-12-22T13:54:05;11.90;99.90
34766;DHT22;20984;43.508;1.504;2023-12-22T13:56:37;11.90;99.90
34766;DHT22;20984;43.508;1.504;2023-12-22T13:59:06;12.00;99.90
34766;DHT22;20984;43.508;1.504;2023-12-22T14:01:31;12.00;99.90
34766;DHT22;20984;43.508;1.504;2023-12-22T14:04:00;12.00;99.90
34766;DHT22;20984;43.508;1.504;2023-12-22T14:06:27;11.90;99.90
34766;DHT22;20984;43.508;1.504;2023-12-22T14:08:56;11.90;99.90
34766;DHT22;20984;43.508;1.504;2023-12-22T14:11:22;11.90;99.90
34766;DHT22;20984;43.508;1.504;2023-12-22T14:13:48;11.90;99.90
34766;DHT22;20984;43.508;1.504;2023-12-22T14:16:14;11.90;99.90
34766;DHT22;20984;43.508;1.504;2023-12-22T14:18:43;11.90;99.90
34766;DHT22;20984;43.508;1.504;2023-12-22T14:21:09;11.90;99.90
34766;DHT22;20984;43.508;1.504;2023-12-22T14:23:34;11.90;99.90
34766;DHT22;20984;43.508;1.504;2023-12-22T14:26:00;11.90;99.90
34766;DHT22;20984;43.508;1.504;2023-12-22T14:28:26;11.90;99.90
34766;DHT22;20984;43.508;1.504;2023-12-22T14:30:53;11.90;99.90
34766;DHT22;20984;43.508;1.504;2023-12-22T14:33:18;11.90;99.90
34766;DHT22;20984;43.508;1.504;2023-12-22T14:35:44;11.90;99.90
34766;DHT22;20984;43.508;1.504;2023-12-22T14:38:09;11.90;99.90
34766;DHT22;20984;43.508;1.504;2023-12-22T14:40:35;11.90;99.90
34766;DHT22;20984;43.508;1.504;2023-12-22T14:43:01;11.90;99.90
34766;DHT22;20984;43.508;1.504;2023-12-22T14:45:27;11.90;99.90
34766;DHT22;20984;43.508;1.504;2023-12-22T14:47:53;11.90;99.90
34766;DHT22;20984;43.508;1.504;2023-12-22T14:50:19;11.90;99.90
34766;DHT22;20984;43.508;1.504;2023-12-22T14:52:45;11.90;99.90
34766;DHT22;20984;43.508;1.504;2023-12-22T14:55:11;11.90;99.90
34766;DHT22;20984;43.508;1.504;2023-12-22T14:57:36;11.90;99.90
34766;DHT22;20984;43.508;1.504;2023-12-22T15:00:03;11.90;99.90
34766;DHT22;20984;43.508;1.504;2023-12-22T15:02:29;11.90;99.90
34766;DHT22;20984;43.508;1.504;2023-12-22T15:04:55;11.90;99.90
34766;DHT22;20984;43.508;1.504;2023-12-22T15:07:20;11.90;99.90
34766;DHT22;20984;43.508;1.504;2023-12-22T15:09:46;11.90;99.90
34766;DHT22;20984;43.508;1.504;2023-12-22T15:12:17;11.90;99.90
34766;DHT22;20984;43.508;1.504;2023-12-22T15:14:49;11.80;99.90
34766;DHT22;20984;43.508;1.504;2023-12-22T15:17:14;11.80;99.90
34766;DHT22;20984;43.508;1.504;2023-12-22T15:19:42;11.80;99.90
34766;DHT22;20984;43.508;1.504;2023-12-22T15:22:11;11.80;99.90
34766;DHT22;20984;43.508;1.504;2023-12-22T15:24:39;11.80;99.90
34766;DHT22;20984;43.508;1.504;2023-12-22T15:27:09;11.80;99.90
34766;DHT22;20984;43.508;1.504;2023-12-22T15:29:34;11.70;99.90
34766;DHT22;20984;43.508;1.504;2023-12-22T15:32:00;11.70;99.90
34766;DHT22;20984;43.508;1.504;2023-12-22T15:34:26;11.70;99.90
34766;DHT22;20984;43.508;1.504;2023-12-22T15:36:52;11.70;99.90